Terminal Aerodrome Forecast
Issued by NWS

Home | Current Version | Previous Version | Text Only | Print | Product List | Glossary On
Versions: 1 2 3 4 5 6 7 8 9 10 11 12 13 14 15 16 17 18 19
000
FTUS46 KSEW 040539
TAFHQM
TAF
KHQM 040539Z 0406/0506 26007KT 6SM BR FEW015
     FM040900 VRB03KT 3SM BR BKN008
     FM041200 VRB03KT 1SM BR OVC005
     FM041600 VRB03KT 5SM BR SCT007
     FM041800 19005KT P6SM SKC
     FM042000 24012KT P6SM SKC=

USA.gov is the U.S. government's official web portal to all federal, state and local government web resources and services.